sensor_id;sensor_type;location;lat;lon;timestamp;P1;durP1;ratioP1;P2;durP2;ratioP2
23362;SDS011;11853;48.080;11.960;2023-12-20T00:01:16;2.30;;;2.10;;
23362;SDS011;11853;48.080;11.960;2023-12-20T00:03:42;2.40;;;2.20;;
23362;SDS011;11853;48.080;11.960;2023-12-20T00:06:07;3.47;;;2.63;;
23362;SDS011;11853;48.080;11.960;2023-12-20T00:08:34;2.75;;;2.55;;
23362;SDS011;11853;48.080;11.960;2023-12-20T00:11:05;2.00;;;1.90;;
23362;SDS011;11853;48.080;11.960;2023-12-20T00:13:46;2.53;;;2.22;;
23362;SDS011;11853;48.080;11.960;2023-12-20T00:16:12;2.42;;;2.22;;
23362;SDS011;11853;48.080;11.960;2023-12-20T00:18:40;2.60;;;2.40;;
23362;SDS011;11853;48.080;11.960;2023-12-20T00:21:06;2.38;;;2.17;;
23362;SDS011;11853;48.080;11.960;2023-12-20T00:23:32;2.58;;;2.33;;
23362;SDS011;11853;48.080;11.960;2023-12-20T00:25:58;2.63;;;2.17;;
23362;SDS011;11853;48.080;11.960;2023-12-20T00:28:27;2.58;;;2.38;;
23362;SDS011;11853;48.080;11.960;2023-12-20T00:30:53;2.40;;;2.20;;
23362;SDS011;11853;48.080;11.960;2023-12-20T00:33:19;2.60;;;2.40;;
23362;SDS011;11853;48.080;11.960;2023-12-20T00:35:57;2.40;;;2.20;;
23362;SDS011;11853;48.080;11.960;2023-12-20T00:38:23;2.53;;;2.33;;
23362;SDS011;11853;48.080;11.960;2023-12-20T00:40:49;2.67;;;2.30;;
23362;SDS011;11853;48.080;11.960;2023-12-20T00:43:15;2.40;;;2.20;;
23362;SDS011;11853;48.080;11.960;2023-12-20T00:45:41;2.03;;;1.90;;
23362;SDS011;11853;48.080;11.960;2023-12-20T00:48:14;2.45;;;2.25;;
23362;SDS011;11853;48.080;11.960;2023-12-20T00:50:49;2.53;;;2.33;;
23362;SDS011;11853;48.080;11.960;2023-12-20T00:53:15;3.05;;;2.17;;
23362;SDS011;11853;48.080;11.960;2023-12-20T00:55:44;3.08;;;2.40;;
23362;SDS011;11853;48.080;11.960;2023-12-20T00:58:10;2.70;;;2.33;;
23362;SDS011;11853;48.080;11.960;2023-12-20T01:00:36;2.30;;;2.10;;
23362;SDS011;11853;48.080;11.960;2023-12-20T01:03:03;2.33;;;2.00;;
23362;SDS011;11853;48.080;11.960;2023-12-20T01:05:29;2.50;;;2.22;;
23362;SDS011;11853;48.080;11.960;2023-12-20T01:07:55;2.92;;;2.20;;
23362;SDS011;11853;48.080;11.960;2023-12-20T01:10:21;3.05;;;2.30;;
23362;SDS011;11853;48.080;11.960;2023-12-20T01:12:48;2.50;;;2.30;;
23362;SDS011;11853;48.080;11.960;2023-12-20T01:15:14;2.50;;;2.28;;
23362;SDS011;11853;48.080;11.960;2023-12-20T01:17:40;2.50;;;2.30;;
23362;SDS011;11853;48.080;11.960;2023-12-20T01:20:06;2.65;;;2.30;;
23362;SDS011;11853;48.080;11.960;2023-12-20T01:22:32;2.78;;;2.58;;
23362;SDS011;11853;48.080;11.960;2023-12-20T01:25:01;2.42;;;2.10;;
23362;SDS011;11853;48.080;11.960;2023-12-20T01:27:27;2.85;;;2.13;;
23362;SDS011;11853;48.080;11.960;2023-12-20T01:29:54;2.17;;;2.08;;
23362;SDS011;11853;48.080;11.960;2023-12-20T01:32:20;2.75;;;2.38;;
23362;SDS011;11853;48.080;11.960;2023-12-20T01:34:45;2.20;;;2.00;;
23362;SDS011;11853;48.080;11.960;2023-12-20T01:37:11;2.10;;;2.00;;
23362;SDS011;11853;48.080;11.960;2023-12-20T01:39:40;2.28;;;2.08;;
23362;SDS011;11853;48.080;11.960;2023-12-20T01:42:06;2.30;;;2.10;;
23362;SDS011;11853;48.080;11.960;2023-12-20T01:44:31;2.30;;;2.10;;
23362;SDS011;11853;48.080;11.960;2023-12-20T01:46:57;2.97;;;2.17;;
23362;SDS011;11853;48.080;11.960;2023-12-20T01:49:23;2.42;;;2.20;;
23362;SDS011;11853;48.080;11.960;2023-12-20T01:51:50;2.60;;;2.40;;
23362;SDS011;11853;48.080;11.960;2023-12-20T01:54:16;2.78;;;2.30;;
23362;SDS011;11853;48.080;11.960;2023-12-20T01:56:44;2.38;;;2.17;;
23362;SDS011;11853;48.080;11.960;2023-12-20T01:59:11;2.50;;;2.30;;
23362;SDS011;11853;48.080;11.960;2023-12-20T02:01:37;2.20;;;1.98;;
23362;SDS011;11853;48.080;11.960;2023-12-20T02:04:03;2.47;;;2.15;;
23362;SDS011;11853;48.080;11.960;2023-12-20T02:06:29;2.63;;;2.42;;
23362;SDS011;11853;48.080;11.960;2023-12-20T02:08:59;2.65;;;2.28;;
23362;SDS011;11853;48.080;11.960;2023-12-20T02:11:25;2.90;;;2.20;;
23362;SDS011;11853;48.080;11.960;2023-12-20T02:13:51;2.42;;;2.22;;
23362;SDS011;11853;48.080;11.960;2023-12-20T02:16:18;2.38;;;2.20;;
23362;SDS011;11853;48.080;11.960;2023-12-20T02:18:44;2.40;;;2.22;;
23362;SDS011;11853;48.080;11.960;2023-12-20T02:21:10;2.42;;;2.22;;
23362;SDS011;11853;48.080;11.960;2023-12-20T02:23:45;3.05;;;2.58;;
23362;SDS011;11853;48.080;11.960;2023-12-20T02:26:10;2.30;;;2.05;;
23362;SDS011;11853;48.080;11.960;2023-12-20T02:28:39;2.40;;;2.20;;
23362;SDS011;11853;48.080;11.960;2023-12-20T02:31:04;2.72;;;2.38;;
23362;SDS011;11853;48.080;11.960;2023-12-20T02:33:30;2.50;;;2.30;;
23362;SDS011;11853;48.080;11.960;2023-12-20T02:35:56;2.58;;;2.38;;
23362;SDS011;11853;48.080;11.960;2023-12-20T02:38:22;3.40;;;2.60;;
23362;SDS011;11853;48.080;11.960;2023-12-20T02:40:48;2.60;;;2.10;;
23362;SDS011;11853;48.080;11.960;2023-12-20T02:43:15;2.60;;;2.40;;
23362;SDS011;11853;48.080;11.960;2023-12-20T02:45:44;2.60;;;2.40;;
23362;SDS011;11853;48.080;11.960;2023-12-20T02:48:10;2.90;;;2.70;;
23362;SDS011;11853;48.080;11.960;2023-12-20T02:50:36;2.97;;;2.05;;
23362;SDS011;11853;48.080;11.960;2023-12-20T02:53:02;2.70;;;2.50;;
23362;SDS011;11853;48.080;11.960;2023-12-20T02:55:27;2.08;;;1.92;;
23362;SDS011;11853;48.080;11.960;2023-12-20T02:57:53;2.85;;;2.50;;
23362;SDS011;11853;48.080;11.960;2023-12-20T03:00:25;4.07;;;2.95;;
23362;SDS011;11853;48.080;11.960;2023-12-20T03:02:51;3.63;;;2.72;;
23362;SDS011;11853;48.080;11.960;2023-12-20T03:05:17;2.50;;;2.30;;
23362;SDS011;11853;48.080;11.960;2023-12-20T03:07:43;3.38;;;2.90;;
23362;SDS011;11853;48.080;11.960;2023-12-20T03:10:09;2.85;;;2.55;;
23362;SDS011;11853;48.080;11.960;2023-12-20T03:12:35;2.85;;;2.55;;
23362;SDS011;11853;48.080;11.960;2023-12-20T03:15:01;2.42;;;2.25;;
23362;SDS011;11853;48.080;11.960;2023-12-20T03:17:27;2.47;;;2.25;;
23362;SDS011;11853;48.080;11.960;2023-12-20T03:19:53;3.15;;;2.35;;
23362;SDS011;11853;48.080;11.960;2023-12-20T03:22:19;2.75;;;2.55;;
23362;SDS011;11853;48.080;11.960;2023-12-20T03:24:44;2.65;;;2.22;;
23362;SDS011;11853;48.080;11.960;2023-12-20T03:27:10;2.53;;;2.33;;
23362;SDS011;11853;48.080;11.960;2023-12-20T03:29:36;2.40;;;2.20;;
23362;SDS011;11853;48.080;11.960;2023-12-20T03:32:02;2.22;;;2.05;;
23362;SDS011;11853;48.080;11.960;2023-12-20T03:34:28;2.40;;;2.20;;
23362;SDS011;11853;48.080;11.960;2023-12-20T03:36:54;2.30;;;2.10;;
23362;SDS011;11853;48.080;11.960;2023-12-20T03:39:20;2.35;;;2.17;;
23362;SDS011;11853;48.080;11.960;2023-12-20T03:41:46;2.40;;;2.20;;
23362;SDS011;11853;48.080;11.960;2023-12-20T03:44:11;2.25;;;2.05;;
23362;SDS011;11853;48.080;11.960;2023-12-20T03:46:37;2.28;;;2.08;;
23362;SDS011;11853;48.080;11.960;2023-12-20T03:49:03;2.00;;;1.90;;
23362;SDS011;11853;48.080;11.960;2023-12-20T03:51:29;3.28;;;2.10;;
23362;SDS011;11853;48.080;11.960;2023-12-20T03:53:55;1.92;;;1.83;;
23362;SDS011;11853;48.080;11.960;2023-12-20T03:56:20;2.58;;;2.38;;
23362;SDS011;11853;48.080;11.960;2023-12-20T03:58:46;2.78;;;2.40;;
23362;SDS011;11853;48.080;11.960;2023-12-20T04:01:12;2.25;;;2.05;;
23362;SDS011;11853;48.080;11.960;2023-12-20T04:03:38;2.50;;;2.30;;
23362;SDS011;11853;48.080;11.960;2023-12-20T04:06:05;1.95;;;1.73;;
23362;SDS011;11853;48.080;11.960;2023-12-20T04:08:31;2.45;;;2.25;;
23362;SDS011;11853;48.080;11.960;2023-12-20T04:10:57;1.80;;;1.70;;
23362;SDS011;11853;48.080;11.960;2023-12-20T04:13:22;2.05;;;1.85;;
23362;SDS011;11853;48.080;11.960;2023-12-20T04:15:48;2.53;;;1.70;;
23362;SDS011;11853;48.080;11.960;2023-12-20T04:18:16;2.83;;;2.00;;
23362;SDS011;11853;48.080;11.960;2023-12-20T04:20:41;2.25;;;1.98;;
23362;SDS011;11853;48.080;11.960;2023-12-20T04:23:07;3.05;;;1.95;;
23362;SDS011;11853;48.080;11.960;2023-12-20T04:25:33;1.80;;;1.70;;
23362;SDS011;11853;48.080;11.960;2023-12-20T04:28:08;1.58;;;1.48;;
23362;SDS011;11853;48.080;11.960;2023-12-20T04:30:37;2.20;;;1.60;;
23362;SDS011;11853;48.080;11.960;2023-12-20T04:33:03;2.80;;;1.60;;
23362;SDS011;11853;48.080;11.960;2023-12-20T04:35:29;1.73;;;1.63;;
23362;SDS011;11853;48.080;11.960;2023-12-20T04:37:55;1.73;;;1.63;;
23362;SDS011;11853;48.080;11.960;2023-12-20T04:40:21;1.83;;;1.73;;
23362;SDS011;11853;48.080;11.960;2023-12-20T04:42:47;1.65;;;1.55;;
23362;SDS011;11853;48.080;11.960;2023-12-20T04:45:13;2.10;;;1.90;;
23362;SDS011;11853;48.080;11.960;2023-12-20T04:47:41;2.08;;;1.70;;
23362;SDS011;11853;48.080;11.960;2023-12-20T04:50:07;1.70;;;1.60;;
23362;SDS011;11853;48.080;11.960;2023-12-20T04:52:34;2.05;;;1.63;;
23362;SDS011;11853;48.080;11.960;2023-12-20T04:55:01;1.85;;;1.38;;
23362;SDS011;11853;48.080;11.960;2023-12-20T04:57:26;1.48;;;1.38;;
23362;SDS011;11853;48.080;11.960;2023-12-20T04:59:52;1.10;;;1.10;;
23362;SDS011;11853;48.080;11.960;2023-12-20T05:02:18;1.45;;;1.30;;
23362;SDS011;11853;48.080;11.960;2023-12-20T05:04:44;1.30;;;1.20;;
23362;SDS011;11853;48.080;11.960;2023-12-20T05:07:10;1.63;;;1.52;;
23362;SDS011;11853;48.080;11.960;2023-12-20T05:09:36;1.15;;;1.15;;
23362;SDS011;11853;48.080;11.960;2023-12-20T05:12:02;1.92;;;1.00;;
23362;SDS011;11853;48.080;11.960;2023-12-20T05:14:28;1.08;;;1.08;;
23362;SDS011;11853;48.080;11.960;2023-12-20T05:16:54;1.20;;;0.98;;
23362;SDS011;11853;48.080;11.960;2023-12-20T05:19:20;0.80;;;0.80;;
23362;SDS011;11853;48.080;11.960;2023-12-20T05:21:45;1.02;;;0.90;;
23362;SDS011;11853;48.080;11.960;2023-12-20T05:24:11;1.00;;;1.00;;
23362;SDS011;11853;48.080;11.960;2023-12-20T05:26:37;1.50;;;0.88;;
23362;SDS011;11853;48.080;11.960;2023-12-20T05:29:03;0.90;;;0.90;;
23362;SDS011;11853;48.080;11.960;2023-12-20T05:31:29;1.10;;;1.00;;
23362;SDS011;11853;48.080;11.960;2023-12-20T05:33:54;2.92;;;1.35;;
23362;SDS011;11853;48.080;11.960;2023-12-20T05:36:20;1.98;;;0.95;;
23362;SDS011;11853;48.080;11.960;2023-12-20T05:38:46;1.17;;;1.08;;
23362;SDS011;11853;48.080;11.960;2023-12-20T05:41:12;0.88;;;0.88;;
23362;SDS011;11853;48.080;11.960;2023-12-20T05:43:38;1.10;;;1.10;;
23362;SDS011;11853;48.080;11.960;2023-12-20T05:46:04;1.48;;;0.88;;
23362;SDS011;11853;48.080;11.960;2023-12-20T05:48:30;0.90;;;0.90;;
23362;SDS011;11853;48.080;11.960;2023-12-20T05:50:57;1.00;;;1.00;;
23362;SDS011;11853;48.080;11.960;2023-12-20T05:53:23;1.08;;;0.90;;
23362;SDS011;11853;48.080;11.960;2023-12-20T05:55:48;1.25;;;1.00;;
23362;SDS011;11853;48.080;11.960;2023-12-20T05:58:14;1.20;;;0.98;;
23362;SDS011;11853;48.080;11.960;2023-12-20T06:00:40;1.05;;;0.88;;
23362;SDS011;11853;48.080;11.960;2023-12-20T06:03:06;1.77;;;1.10;;
23362;SDS011;11853;48.080;11.960;2023-12-20T06:05:31;1.10;;;1.10;;
23362;SDS011;11853;48.080;11.960;2023-12-20T06:07:57;1.20;;;1.10;;
23362;SDS011;11853;48.080;11.960;2023-12-20T06:10:26;1.10;;;1.10;;
23362;SDS011;11853;48.080;11.960;2023-12-20T06:12:52;2.30;;;1.13;;
23362;SDS011;11853;48.080;11.960;2023-12-20T06:15:18;0.93;;;0.93;;
23362;SDS011;11853;48.080;11.960;2023-12-20T06:17:44;1.40;;;1.10;;
23362;SDS011;11853;48.080;11.960;2023-12-20T06:20:10;1.10;;;1.00;;
23362;SDS011;11853;48.080;11.960;2023-12-20T06:22:36;1.00;;;1.00;;
23362;SDS011;11853;48.080;11.960;2023-12-20T06:25:02;1.10;;;1.02;;
23362;SDS011;11853;48.080;11.960;2023-12-20T06:27:28;1.20;;;1.10;;
23362;SDS011;11853;48.080;11.960;2023-12-20T06:29:54;0.85;;;0.85;;
23362;SDS011;11853;48.080;11.960;2023-12-20T06:32:20;1.30;;;1.20;;
23362;SDS011;11853;48.080;11.960;2023-12-20T06:34:45;0.80;;;0.80;;
23362;SDS011;11853;48.080;11.960;2023-12-20T06:37:11;1.30;;;0.90;;
23362;SDS011;11853;48.080;11.960;2023-12-20T06:39:37;0.70;;;0.70;;
23362;SDS011;11853;48.080;11.960;2023-12-20T06:42:03;1.35;;;1.25;;
23362;SDS011;11853;48.080;11.960;2023-12-20T06:44:29;1.45;;;1.02;;
23362;SDS011;11853;48.080;11.960;2023-12-20T06:46:54;1.10;;;1.02;;
23362;SDS011;11853;48.080;11.960;2023-12-20T06:49:20;0.80;;;0.80;;
23362;SDS011;11853;48.080;11.960;2023-12-20T06:51:46;0.85;;;0.75;;
23362;SDS011;11853;48.080;11.960;2023-12-20T06:54:12;0.77;;;0.77;;
23362;SDS011;11853;48.080;11.960;2023-12-20T06:56:37;0.80;;;0.80;;
23362;SDS011;11853;48.080;11.960;2023-12-20T06:59:03;1.40;;;1.25;;
23362;SDS011;11853;48.080;11.960;2023-12-20T07:01:29;1.23;;;1.10;;
23362;SDS011;11853;48.080;11.960;2023-12-20T07:03:55;1.83;;;0.90;;
23362;SDS011;11853;48.080;11.960;2023-12-20T07:06:20;0.80;;;0.80;;
23362;SDS011;11853;48.080;11.960;2023-12-20T07:08:46;0.77;;;0.77;;
23362;SDS011;11853;48.080;11.960;2023-12-20T07:11:12;0.93;;;0.90;;
23362;SDS011;11853;48.080;11.960;2023-12-20T07:13:38;0.85;;;0.85;;
23362;SDS011;11853;48.080;11.960;2023-12-20T07:16:04;0.93;;;0.90;;
23362;SDS011;11853;48.080;11.960;2023-12-20T07:18:29;1.00;;;0.85;;
23362;SDS011;11853;48.080;11.960;2023-12-20T07:20:55;0.65;;;0.65;;
23362;SDS011;11853;48.080;11.960;2023-12-20T07:23:21;1.38;;;0.75;;
23362;SDS011;11853;48.080;11.960;2023-12-20T07:25:47;0.60;;;0.60;;
23362;SDS011;11853;48.080;11.960;2023-12-20T07:28:13;0.50;;;0.50;;
23362;SDS011;11853;48.080;11.960;2023-12-20T07:30:39;0.73;;;0.73;;
23362;SDS011;11853;48.080;11.960;2023-12-20T07:33:04;0.73;;;0.73;;
23362;SDS011;11853;48.080;11.960;2023-12-20T07:35:33;3.65;;;0.98;;
23362;SDS011;11853;48.080;11.960;2023-12-20T07:37:58;6.05;;;1.02;;
23362;SDS011;11853;48.080;11.960;2023-12-20T07:40:24;2.72;;;0.90;;
23362;SDS011;11853;48.080;11.960;2023-12-20T07:42:50;1.83;;;1.02;;
23362;SDS011;11853;48.080;11.960;2023-12-20T07:45:16;4.03;;;0.90;;
23362;SDS011;11853;48.080;11.960;2023-12-20T07:47:41;4.25;;;0.95;;
23362;SDS011;11853;48.080;11.960;2023-12-20T07:50:07;1.90;;;1.10;;
23362;SDS011;11853;48.080;11.960;2023-12-20T07:52:33;1.08;;;0.98;;
23362;SDS011;11853;48.080;11.960;2023-12-20T07:54:59;6.60;;;0.80;;
23362;SDS011;11853;48.080;11.960;2023-12-20T07:57:28;1.95;;;0.70;;
23362;SDS011;11853;48.080;11.960;2023-12-20T07:59:55;4.80;;;1.05;;
23362;SDS011;11853;48.080;11.960;2023-12-20T08:02:21;0.70;;;0.60;;
23362;SDS011;11853;48.080;11.960;2023-12-20T08:04:47;3.28;;;0.90;;
23362;SDS011;11853;48.080;11.960;2023-12-20T08:07:12;1.77;;;0.80;;
23362;SDS011;11853;48.080;11.960;2023-12-20T08:09:38;1.38;;;0.70;;
23362;SDS011;11853;48.080;11.960;2023-12-20T08:12:04;5.32;;;1.67;;
23362;SDS011;11853;48.080;11.960;2023-12-20T08:14:30;1.55;;;0.73;;
23362;SDS011;11853;48.080;11.960;2023-12-20T08:16:56;0.60;;;0.60;;
23362;SDS011;11853;48.080;11.960;2023-12-20T08:19:22;1.95;;;0.75;;
23362;SDS011;11853;48.080;11.960;2023-12-20T08:21:48;1.33;;;0.50;;
23362;SDS011;11853;48.080;11.960;2023-12-20T08:24:14;0.55;;;0.55;;
23362;SDS011;11853;48.080;11.960;2023-12-20T08:26:40;3.63;;;0.93;;
23362;SDS011;11853;48.080;11.960;2023-12-20T08:29:06;1.55;;;1.00;;
23362;SDS011;11853;48.080;11.960;2023-12-20T08:31:32;2.95;;;0.88;;
23362;SDS011;11853;48.080;11.960;2023-12-20T08:33:58;2.63;;;0.95;;
23362;SDS011;11853;48.080;11.960;2023-12-20T08:36:23;1.98;;;1.23;;
23362;SDS011;11853;48.080;11.960;2023-12-20T08:38:49;1.67;;;0.70;;
23362;SDS011;11853;48.080;11.960;2023-12-20T08:41:19;2.53;;;0.60;;
23362;SDS011;11853;48.080;11.960;2023-12-20T08:43:45;2.30;;;0.93;;
23362;SDS011;11853;48.080;11.960;2023-12-20T08:46:11;1.08;;;0.90;;
23362;SDS011;11853;48.080;11.960;2023-12-20T08:48:37;1.40;;;0.70;;
23362;SDS011;11853;48.080;11.960;2023-12-20T08:51:03;3.53;;;0.80;;
23362;SDS011;11853;48.080;11.960;2023-12-20T08:53:32;0.63;;;0.63;;
23362;SDS011;11853;48.080;11.960;2023-12-20T08:55:58;2.90;;;1.10;;
23362;SDS011;11853;48.080;11.960;2023-12-20T08:58:26;0.75;;;0.75;;
23362;SDS011;11853;48.080;11.960;2023-12-20T09:00:52;1.27;;;1.10;;
23362;SDS011;11853;48.080;11.960;2023-12-20T09:03:18;0.93;;;0.85;;
23362;SDS011;11853;48.080;11.960;2023-12-20T09:05:44;0.70;;;0.70;;
23362;SDS011;11853;48.080;11.960;2023-12-20T09:08:10;0.60;;;0.60;;
23362;SDS011;11853;48.080;11.960;2023-12-20T09:10:36;0.88;;;0.63;;
23362;SDS011;11853;48.080;11.960;2023-12-20T09:13:03;0.40;;;0.40;;
23362;SDS011;11853;48.080;11.960;2023-12-20T09:15:29;0.70;;;0.70;;
23362;SDS011;11853;48.080;11.960;2023-12-20T09:17:55;0.70;;;0.70;;
23362;SDS011;11853;48.080;11.960;2023-12-20T09:20:21;0.60;;;0.60;;
23362;SDS011;11853;48.080;11.960;2023-12-20T09:22:48;0.68;;;0.68;;
23362;SDS011;11853;48.080;11.960;2023-12-20T09:25:14;0.50;;;0.50;;
23362;SDS011;11853;48.080;11.960;2023-12-20T09:27:42;0.50;;;0.50;;
23362;SDS011;11853;48.080;11.960;2023-12-20T09:30:08;0.60;;;0.60;;
23362;SDS011;11853;48.080;11.960;2023-12-20T09:32:34;0.95;;;0.85;;
23362;SDS011;11853;48.080;11.960;2023-12-20T09:35:01;0.60;;;0.60;;
23362;SDS011;11853;48.080;11.960;2023-12-20T09:37:28;0.50;;;0.50;;
23362;SDS011;11853;48.080;11.960;2023-12-20T09:39:54;0.60;;;0.60;;
23362;SDS011;11853;48.080;11.960;2023-12-20T09:42:24;0.95;;;0.60;;
23362;SDS011;11853;48.080;11.960;2023-12-20T09:45:03;1.20;;;0.60;;
23362;SDS011;11853;48.080;11.960;2023-12-20T09:47:33;0.50;;;0.50;;
23362;SDS011;11853;48.080;11.960;2023-12-20T09:49:59;1.45;;;0.55;;
23362;SDS011;11853;48.080;11.960;2023-12-20T09:52:26;0.50;;;0.50;;
23362;SDS011;11853;48.080;11.960;2023-12-20T09:54:52;0.60;;;0.60;;
23362;SDS011;11853;48.080;11.960;2023-12-20T09:57:20;0.90;;;0.60;;
23362;SDS011;11853;48.080;11.960;2023-12-20T09:59:46;0.68;;;0.60;;
23362;SDS011;11853;48.080;11.960;2023-12-20T10:02:12;0.57;;;0.45;;
23362;SDS011;11853;48.080;11.960;2023-12-20T10:04:43;0.60;;;0.60;;
23362;SDS011;11853;48.080;11.960;2023-12-20T10:07:12;0.60;;;0.60;;
23362;SDS011;11853;48.080;11.960;2023-12-20T10:09:38;0.47;;;0.47;;
23362;SDS011;11853;48.080;11.960;2023-12-20T10:12:04;0.70;;;0.63;;
23362;SDS011;11853;48.080;11.960;2023-12-20T10:14:32;0.70;;;0.70;;
23362;SDS011;11853;48.080;11.960;2023-12-20T10:17:04;0.98;;;0.85;;
23362;SDS011;11853;48.080;11.960;2023-12-20T10:19:33;0.60;;;0.60;;
23362;SDS011;11853;48.080;11.960;2023-12-20T10:21:59;0.90;;;0.90;;
23362;SDS011;11853;48.080;11.960;2023-12-20T10:24:25;1.38;;;1.27;;
23362;SDS011;11853;48.080;11.960;2023-12-20T10:27:07;0.90;;;0.90;;
23362;SDS011;11853;48.080;11.960;2023-12-20T10:29:34;0.95;;;0.95;;
23362;SDS011;11853;48.080;11.960;2023-12-20T10:32:14;0.90;;;0.90;;
23362;SDS011;11853;48.080;11.960;2023-12-20T10:34:53;1.05;;;0.98;;
23362;SDS011;11853;48.080;11.960;2023-12-20T10:37:20;1.20;;;0.93;;
23362;SDS011;11853;48.080;11.960;2023-12-20T10:39:50;1.10;;;1.00;;
23362;SDS011;11853;48.080;11.960;2023-12-20T10:42:21;0.82;;;0.82;;
23362;SDS011;11853;48.080;11.960;2023-12-20T10:44:48;0.70;;;0.70;;
23362;SDS011;11853;48.080;11.960;2023-12-20T10:47:16;0.90;;;0.90;;
23362;SDS011;11853;48.080;11.960;2023-12-20T10:49:42;1.20;;;1.10;;
23362;SDS011;11853;48.080;11.960;2023-12-20T10:52:10;1.58;;;1.20;;
23362;SDS011;11853;48.080;11.960;2023-12-20T10:54:40;1.30;;;1.20;;
23362;SDS011;11853;48.080;11.960;2023-12-20T10:57:07;0.90;;;0.88;;
23362;SDS011;11853;48.080;11.960;2023-12-20T10:59:33;1.00;;;0.90;;
23362;SDS011;11853;48.080;11.960;2023-12-20T11:02:05;1.38;;;1.20;;
23362;SDS011;11853;48.080;11.960;2023-12-20T11:07:25;1.08;;;1.08;;
23362;SDS011;11853;48.080;11.960;2023-12-20T11:09:59;2.30;;;1.77;;
23362;SDS011;11853;48.080;11.960;2023-12-20T11:12:44;1.40;;;1.27;;
23362;SDS011;11853;48.080;11.960;2023-12-20T11:15:17;1.60;;;0.98;;
23362;SDS011;11853;48.080;11.960;2023-12-20T11:17:54;1.45;;;1.10;;
23362;SDS011;11853;48.080;11.960;2023-12-20T11:20:24;1.67;;;1.48;;
23362;SDS011;11853;48.080;11.960;2023-12-20T11:23:02;1.30;;;1.20;;
23362;SDS011;11853;48.080;11.960;2023-12-20T11:25:28;1.02;;;0.95;;
23362;SDS011;11853;48.080;11.960;2023-12-20T11:28:06;0.80;;;0.80;;
23362;SDS011;11853;48.080;11.960;2023-12-20T11:30:56;0.80;;;0.80;;
23362;SDS011;11853;48.080;11.960;2023-12-20T11:33:22;1.05;;;0.90;;
23362;SDS011;11853;48.080;11.960;2023-12-20T11:35:49;1.55;;;0.88;;
23362;SDS011;11853;48.080;11.960;2023-12-20T11:38:15;1.02;;;1.02;;
23362;SDS011;11853;48.080;11.960;2023-12-20T11:40:42;1.00;;;0.90;;
23362;SDS011;11853;48.080;11.960;2023-12-20T11:43:09;1.10;;;1.00;;
23362;SDS011;11853;48.080;11.960;2023-12-20T11:45:35;0.90;;;0.90;;
23362;SDS011;11853;48.080;11.960;2023-12-20T11:48:04;1.00;;;1.00;;
23362;SDS011;11853;48.080;11.960;2023-12-20T11:50:31;0.90;;;0.90;;
23362;SDS011;11853;48.080;11.960;2023-12-20T11:52:57;1.75;;;1.60;;
23362;SDS011;11853;48.080;11.960;2023-12-20T11:55:23;1.30;;;1.20;;
23362;SDS011;11853;48.080;11.960;2023-12-20T11:57:52;1.17;;;1.17;;
23362;SDS011;11853;48.080;11.960;2023-12-20T12:00:19;1.38;;;1.27;;
23362;SDS011;11853;48.080;11.960;2023-12-20T12:02:58;1.38;;;1.27;;
23362;SDS011;11853;48.080;11.960;2023-12-20T12:05:24;1.77;;;1.52;;
23362;SDS011;11853;48.080;11.960;2023-12-20T12:07:51;1.25;;;1.25;;
23362;SDS011;11853;48.080;11.960;2023-12-20T12:10:17;1.58;;;1.48;;
23362;SDS011;11853;48.080;11.960;2023-12-20T12:12:43;1.50;;;1.40;;
23362;SDS011;11853;48.080;11.960;2023-12-20T12:15:09;1.27;;;1.17;;
23362;SDS011;11853;48.080;11.960;2023-12-20T12:17:35;1.45;;;1.35;;
23362;SDS011;11853;48.080;11.960;2023-12-20T12:20:04;1.35;;;1.25;;
23362;SDS011;11853;48.080;11.960;2023-12-20T12:22:31;1.33;;;1.23;;
23362;SDS011;11853;48.080;11.960;2023-12-20T12:25:09;1.40;;;1.30;;
23362;SDS011;11853;48.080;11.960;2023-12-20T12:27:39;1.60;;;1.33;;
23362;SDS011;11853;48.080;11.960;2023-12-20T12:30:06;1.33;;;1.23;;
23362;SDS011;11853;48.080;11.960;2023-12-20T12:32:33;1.48;;;1.13;;
23362;SDS011;11853;48.080;11.960;2023-12-20T12:34:59;1.50;;;1.40;;
23362;SDS011;11853;48.080;11.960;2023-12-20T12:37:25;1.00;;;1.00;;
23362;SDS011;11853;48.080;11.960;2023-12-20T12:39:54;1.60;;;1.50;;
23362;SDS011;11853;48.080;11.960;2023-12-20T12:42:20;1.20;;;1.10;;
23362;SDS011;11853;48.080;11.960;2023-12-20T12:44:47;1.20;;;1.17;;
23362;SDS011;11853;48.080;11.960;2023-12-20T12:47:13;1.00;;;1.00;;
23362;SDS011;11853;48.080;11.960;2023-12-20T12:49:40;1.15;;;1.05;;
23362;SDS011;11853;48.080;11.960;2023-12-20T12:52:06;0.90;;;0.90;;
23362;SDS011;11853;48.080;11.960;2023-12-20T12:54:32;1.60;;;1.50;;
23362;SDS011;11853;48.080;11.960;2023-12-20T12:56:57;1.42;;;1.33;;
23362;SDS011;11853;48.080;11.960;2023-12-20T12:59:23;1.67;;;1.45;;
23362;SDS011;11853;48.080;11.960;2023-12-20T13:01:49;1.15;;;1.10;;
23362;SDS011;11853;48.080;11.960;2023-12-20T13:04:15;0.90;;;0.90;;
23362;SDS011;11853;48.080;11.960;2023-12-20T13:06:41;1.60;;;1.50;;
23362;SDS011;11853;48.080;11.960;2023-12-20T13:09:07;1.33;;;1.20;;
23362;SDS011;11853;48.080;11.960;2023-12-20T13:11:35;1.83;;;1.63;;
23362;SDS011;11853;48.080;11.960;2023-12-20T13:14:01;1.65;;;1.38;;
23362;SDS011;11853;48.080;11.960;2023-12-20T13:16:28;1.80;;;1.48;;
23362;SDS011;11853;48.080;11.960;2023-12-20T13:18:54;1.33;;;1.23;;
23362;SDS011;11853;48.080;11.960;2023-12-20T13:21:21;1.50;;;1.30;;
23362;SDS011;11853;48.080;11.960;2023-12-20T13:23:46;1.52;;;1.40;;
23362;SDS011;11853;48.080;11.960;2023-12-20T13:26:12;1.08;;;1.08;;
23362;SDS011;11853;48.080;11.960;2023-12-20T13:28:39;1.20;;;1.10;;
23362;SDS011;11853;48.080;11.960;2023-12-20T13:31:05;1.00;;;1.00;;
23362;SDS011;11853;48.080;11.960;2023-12-20T13:33:31;0.98;;;0.98;;
23362;SDS011;11853;48.080;11.960;2023-12-20T13:35:57;0.80;;;0.80;;
23362;SDS011;11853;48.080;11.960;2023-12-20T13:38:23;1.05;;;1.05;;
23362;SDS011;11853;48.080;11.960;2023-12-20T13:40:49;0.98;;;0.98;;
23362;SDS011;11853;48.080;11.960;2023-12-20T13:43:15;0.90;;;0.90;;
23362;SDS011;11853;48.080;11.960;2023-12-20T13:45:45;1.13;;;1.02;;
23362;SDS011;11853;48.080;11.960;2023-12-20T13:48:12;1.15;;;1.05;;
23362;SDS011;11853;48.080;11.960;2023-12-20T13:50:37;1.23;;;1.23;;
23362;SDS011;11853;48.080;11.960;2023-12-20T13:53:03;2.05;;;1.50;;
23362;SDS011;11853;48.080;11.960;2023-12-20T13:55:29;1.17;;;1.17;;
23362;SDS011;11853;48.080;11.960;2023-12-20T13:57:56;3.30;;;1.63;;
23362;SDS011;11853;48.080;11.960;2023-12-20T14:00:22;1.40;;;1.40;;
23362;SDS011;11853;48.080;11.960;2023-12-20T14:02:49;1.60;;;1.50;;
23362;SDS011;11853;48.080;11.960;2023-12-20T14:05:15;2.25;;;2.05;;
23362;SDS011;11853;48.080;11.960;2023-12-20T14:07:45;1.63;;;1.52;;
23362;SDS011;11853;48.080;11.960;2023-12-20T14:10:12;1.60;;;1.50;;
23362;SDS011;11853;48.080;11.960;2023-12-20T14:12:38;1.80;;;1.55;;
23362;SDS011;11853;48.080;11.960;2023-12-20T14:15:05;1.60;;;1.50;;
23362;SDS011;11853;48.080;11.960;2023-12-20T14:17:39;1.80;;;1.70;;
23362;SDS011;11853;48.080;11.960;2023-12-20T14:20:09;3.95;;;1.77;;
23362;SDS011;11853;48.080;11.960;2023-12-20T14:22:37;1.73;;;1.63;;
23362;SDS011;11853;48.080;11.960;2023-12-20T14:25:04;2.65;;;2.10;;
23362;SDS011;11853;48.080;11.960;2023-12-20T14:27:31;2.33;;;2.10;;
23362;SDS011;11853;48.080;11.960;2023-12-20T14:29:57;2.80;;;1.80;;
23362;SDS011;11853;48.080;11.960;2023-12-20T14:32:23;2.78;;;1.95;;
23362;SDS011;11853;48.080;11.960;2023-12-20T14:34:52;2.13;;;1.98;;